sensor_id;sensor_type;location;lat;lon;timestamp;P1;durP1;ratioP1;P2;durP2;ratioP2
10503;SDS011;5299;48.704;9.138;2022-12-18T00:03:29;28.50;;;17.80;;
10503;SDS011;5299;48.704;9.138;2022-12-18T00:07:30;33.38;;;18.45;;
10503;SDS011;5299;48.704;9.138;2022-12-18T00:11:32;40.03;;;20.45;;
10503;SDS011;5299;48.704;9.138;2022-12-18T00:15:34;31.92;;;19.15;;
10503;SDS011;5299;48.704;9.138;2022-12-18T00:19:36;33.65;;;17.55;;
10503;SDS011;5299;48.704;9.138;2022-12-18T00:23:38;33.85;;;18.63;;
10503;SDS011;5299;48.704;9.138;2022-12-18T00:27:40;32.30;;;16.95;;
10503;SDS011;5299;48.704;9.138;2022-12-18T00:31:42;32.33;;;18.75;;
10503;SDS011;5299;48.704;9.138;2022-12-18T00:35:44;30.95;;;18.02;;
10503;SDS011;5299;48.704;9.138;2022-12-18T00:39:47;28.35;;;17.90;;
10503;SDS011;5299;48.704;9.138;2022-12-18T00:43:49;31.65;;;16.73;;
10503;SDS011;5299;48.704;9.138;2022-12-18T00:47:50;33.80;;;19.38;;
10503;SDS011;5299;48.704;9.138;2022-12-18T00:51:57;32.47;;;19.83;;
10503;SDS011;5299;48.704;9.138;2022-12-18T00:55:58;32.58;;;19.10;;
10503;SDS011;5299;48.704;9.138;2022-12-18T00:59:59;33.90;;;17.85;;
10503;SDS011;5299;48.704;9.138;2022-12-18T01:04:02;37.17;;;19.15;;
10503;SDS011;5299;48.704;9.138;2022-12-18T01:08:04;30.92;;;18.05;;
10503;SDS011;5299;48.704;9.138;2022-12-18T01:12:05;31.10;;;18.45;;
10503;SDS011;5299;48.704;9.138;2022-12-18T01:16:07;30.85;;;16.50;;
10503;SDS011;5299;48.704;9.138;2022-12-18T01:20:11;28.77;;;16.40;;
10503;SDS011;5299;48.704;9.138;2022-12-18T01:24:13;30.88;;;16.83;;
10503;SDS011;5299;48.704;9.138;2022-12-18T01:28:14;27.08;;;16.60;;
10503;SDS011;5299;48.704;9.138;2022-12-18T01:32:16;25.73;;;17.25;;
10503;SDS011;5299;48.704;9.138;2022-12-18T01:40:45;31.33;;;17.27;;
10503;SDS011;5299;48.704;9.138;2022-12-18T01:44:51;34.33;;;20.25;;
10503;SDS011;5299;48.704;9.138;2022-12-18T01:48:58;32.85;;;20.52;;
10503;SDS011;5299;48.704;9.138;2022-12-18T01:53:17;34.00;;;18.48;;
10503;SDS011;5299;48.704;9.138;2022-12-18T01:57:21;32.60;;;18.02;;
10503;SDS011;5299;48.704;9.138;2022-12-18T02:01:23;29.40;;;19.98;;
10503;SDS011;5299;48.704;9.138;2022-12-18T02:09:50;37.28;;;18.52;;
10503;SDS011;5299;48.704;9.138;2022-12-18T02:18:14;27.83;;;17.90;;
10503;SDS011;5299;48.704;9.138;2022-12-18T02:26:36;36.90;;;20.77;;
10503;SDS011;5299;48.704;9.138;2022-12-18T02:30:39;30.40;;;17.52;;
10503;SDS011;5299;48.704;9.138;2022-12-18T02:34:42;27.80;;;17.85;;
10503;SDS011;5299;48.704;9.138;2022-12-18T02:38:44;31.10;;;18.23;;
10503;SDS011;5299;48.704;9.138;2022-12-18T02:42:47;30.42;;;18.55;;
10503;SDS011;5299;48.704;9.138;2022-12-18T02:46:49;32.08;;;19.73;;
10503;SDS011;5299;48.704;9.138;2022-12-18T02:50:54;36.10;;;19.50;;
10503;SDS011;5299;48.704;9.138;2022-12-18T02:55:08;35.50;;;20.77;;
10503;SDS011;5299;48.704;9.138;2022-12-18T02:59:22;30.92;;;18.23;;
10503;SDS011;5299;48.704;9.138;2022-12-18T03:03:28;28.40;;;17.52;;
10503;SDS011;5299;48.704;9.138;2022-12-18T03:07:39;32.45;;;18.48;;
10503;SDS011;5299;48.704;9.138;2022-12-18T03:11:45;34.55;;;16.92;;
10503;SDS011;5299;48.704;9.138;2022-12-18T03:16:08;28.65;;;19.02;;
10503;SDS011;5299;48.704;9.138;2022-12-18T03:20:15;33.00;;;19.77;;
10503;SDS011;5299;48.704;9.138;2022-12-18T03:24:19;31.90;;;17.85;;
10503;SDS011;5299;48.704;9.138;2022-12-18T03:28:21;33.38;;;18.02;;
10503;SDS011;5299;48.704;9.138;2022-12-18T03:32:25;30.05;;;18.70;;
10503;SDS011;5299;48.704;9.138;2022-12-18T03:36:33;32.33;;;18.35;;
10503;SDS011;5299;48.704;9.138;2022-12-18T03:45:43;28.00;;;18.35;;
10503;SDS011;5299;48.704;9.138;2022-12-18T03:49:34;32.83;;;18.98;;
10503;SDS011;5299;48.704;9.138;2022-12-18T03:53:43;35.17;;;17.08;;
10503;SDS011;5299;48.704;9.138;2022-12-18T03:57:48;26.48;;;18.67;;
10503;SDS011;5299;48.704;9.138;2022-12-18T04:01:50;36.55;;;19.15;;
10503;SDS011;5299;48.704;9.138;2022-12-18T04:05:54;33.15;;;19.23;;
10503;SDS011;5299;48.704;9.138;2022-12-18T04:09:56;30.38;;;18.98;;
10503;SDS011;5299;48.704;9.138;2022-12-18T04:13:58;28.40;;;17.48;;
10503;SDS011;5299;48.704;9.138;2022-12-18T04:17:59;31.25;;;17.80;;
10503;SDS011;5299;48.704;9.138;2022-12-18T04:22:01;36.88;;;20.20;;
10503;SDS011;5299;48.704;9.138;2022-12-18T04:26:02;47.92;;;23.48;;
10503;SDS011;5299;48.704;9.138;2022-12-18T04:30:04;35.75;;;22.65;;
10503;SDS011;5299;48.704;9.138;2022-12-18T04:34:06;43.28;;;22.95;;
10503;SDS011;5299;48.704;9.138;2022-12-18T04:38:08;35.60;;;22.17;;
10503;SDS011;5299;48.704;9.138;2022-12-18T04:42:11;39.97;;;22.67;;
10503;SDS011;5299;48.704;9.138;2022-12-18T04:46:12;43.92;;;23.58;;
10503;SDS011;5299;48.704;9.138;2022-12-18T04:50:14;41.17;;;22.77;;
10503;SDS011;5299;48.704;9.138;2022-12-18T04:54:15;35.63;;;22.50;;
10503;SDS011;5299;48.704;9.138;2022-12-18T04:58:17;37.67;;;22.75;;
10503;SDS011;5299;48.704;9.138;2022-12-18T05:02:18;38.78;;;22.85;;
10503;SDS011;5299;48.704;9.138;2022-12-18T05:06:20;39.85;;;25.92;;
10503;SDS011;5299;48.704;9.138;2022-12-18T05:10:21;44.38;;;21.95;;
10503;SDS011;5299;48.704;9.138;2022-12-18T05:14:23;40.40;;;22.90;;
10503;SDS011;5299;48.704;9.138;2022-12-18T05:18:25;34.35;;;22.05;;
10503;SDS011;5299;48.704;9.138;2022-12-18T05:22:26;36.72;;;22.45;;
10503;SDS011;5299;48.704;9.138;2022-12-18T05:26:28;36.65;;;21.88;;
10503;SDS011;5299;48.704;9.138;2022-12-18T05:30:30;29.92;;;18.25;;
10503;SDS011;5299;48.704;9.138;2022-12-18T05:34:31;31.27;;;19.48;;
10503;SDS011;5299;48.704;9.138;2022-12-18T05:38:35;28.88;;;16.95;;
10503;SDS011;5299;48.704;9.138;2022-12-18T05:42:37;37.80;;;21.05;;
10503;SDS011;5299;48.704;9.138;2022-12-18T05:46:39;29.70;;;17.85;;
10503;SDS011;5299;48.704;9.138;2022-12-18T05:50:41;35.33;;;21.10;;
10503;SDS011;5299;48.704;9.138;2022-12-18T05:54:43;31.63;;;20.20;;
10503;SDS011;5299;48.704;9.138;2022-12-18T05:58:45;46.83;;;23.75;;
10503;SDS011;5299;48.704;9.138;2022-12-18T06:02:47;42.20;;;21.45;;
10503;SDS011;5299;48.704;9.138;2022-12-18T06:06:51;50.17;;;25.10;;
10503;SDS011;5299;48.704;9.138;2022-12-18T06:10:53;37.78;;;21.95;;
10503;SDS011;5299;48.704;9.138;2022-12-18T06:14:54;41.15;;;23.27;;
10503;SDS011;5299;48.704;9.138;2022-12-18T06:18:56;40.38;;;21.67;;
10503;SDS011;5299;48.704;9.138;2022-12-18T06:22:59;37.45;;;21.40;;
10503;SDS011;5299;48.704;9.138;2022-12-18T06:27:03;37.45;;;21.20;;
10503;SDS011;5299;48.704;9.138;2022-12-18T06:31:05;40.08;;;20.30;;
10503;SDS011;5299;48.704;9.138;2022-12-18T06:35:07;31.40;;;20.02;;
10503;SDS011;5299;48.704;9.138;2022-12-18T06:39:09;34.72;;;18.23;;
10503;SDS011;5299;48.704;9.138;2022-12-18T06:43:10;31.85;;;18.95;;
10503;SDS011;5299;48.704;9.138;2022-12-18T06:47:12;32.75;;;18.40;;
10503;SDS011;5299;48.704;9.138;2022-12-18T06:51:15;34.42;;;18.70;;
10503;SDS011;5299;48.704;9.138;2022-12-18T06:55:18;36.05;;;19.65;;
10503;SDS011;5299;48.704;9.138;2022-12-18T06:59:19;32.08;;;19.52;;
10503;SDS011;5299;48.704;9.138;2022-12-18T07:03:21;30.80;;;18.48;;
10503;SDS011;5299;48.704;9.138;2022-12-18T07:07:22;33.42;;;18.55;;
10503;SDS011;5299;48.704;9.138;2022-12-18T07:11:24;33.25;;;19.27;;
10503;SDS011;5299;48.704;9.138;2022-12-18T07:15:25;35.42;;;19.58;;
10503;SDS011;5299;48.704;9.138;2022-12-18T07:19:27;29.63;;;18.33;;
10503;SDS011;5299;48.704;9.138;2022-12-18T07:23:30;28.55;;;18.55;;
10503;SDS011;5299;48.704;9.138;2022-12-18T07:27:33;27.20;;;16.83;;
10503;SDS011;5299;48.704;9.138;2022-12-18T07:31:35;30.42;;;17.70;;
10503;SDS011;5299;48.704;9.138;2022-12-18T07:35:37;31.25;;;17.27;;
10503;SDS011;5299;48.704;9.138;2022-12-18T07:39:38;29.95;;;16.60;;
10503;SDS011;5299;48.704;9.138;2022-12-18T07:43:40;30.55;;;16.20;;
10503;SDS011;5299;48.704;9.138;2022-12-18T07:47:43;27.85;;;17.20;;
10503;SDS011;5299;48.704;9.138;2022-12-18T07:51:44;26.75;;;15.50;;
10503;SDS011;5299;48.704;9.138;2022-12-18T07:55:54;28.58;;;16.58;;
10503;SDS011;5299;48.704;9.138;2022-12-18T08:00:18;29.00;;;16.45;;
10503;SDS011;5299;48.704;9.138;2022-12-18T08:04:21;28.83;;;16.50;;
10503;SDS011;5299;48.704;9.138;2022-12-18T08:08:22;33.50;;;17.02;;
10503;SDS011;5299;48.704;9.138;2022-12-18T08:12:24;26.08;;;17.13;;
10503;SDS011;5299;48.704;9.138;2022-12-18T08:16:26;27.58;;;16.92;;
10503;SDS011;5299;48.704;9.138;2022-12-18T08:20:27;36.08;;;19.73;;
10503;SDS011;5299;48.704;9.138;2022-12-18T08:24:29;35.55;;;19.27;;
10503;SDS011;5299;48.704;9.138;2022-12-18T08:28:30;32.50;;;19.20;;
10503;SDS011;5299;48.704;9.138;2022-12-18T08:32:32;33.40;;;19.15;;
10503;SDS011;5299;48.704;9.138;2022-12-18T08:36:34;34.17;;;19.13;;
10503;SDS011;5299;48.704;9.138;2022-12-18T08:40:35;33.95;;;19.35;;
10503;SDS011;5299;48.704;9.138;2022-12-18T08:44:36;34.78;;;21.17;;
10503;SDS011;5299;48.704;9.138;2022-12-18T08:48:38;30.80;;;18.60;;
10503;SDS011;5299;48.704;9.138;2022-12-18T08:52:39;29.95;;;18.80;;
10503;SDS011;5299;48.704;9.138;2022-12-18T08:56:41;34.20;;;18.63;;
10503;SDS011;5299;48.704;9.138;2022-12-18T09:00:42;37.05;;;20.98;;
10503;SDS011;5299;48.704;9.138;2022-12-18T09:04:46;36.20;;;21.17;;
10503;SDS011;5299;48.704;9.138;2022-12-18T09:08:57;38.40;;;21.63;;
10503;SDS011;5299;48.704;9.138;2022-12-18T09:12:58;40.53;;;23.45;;
10503;SDS011;5299;48.704;9.138;2022-12-18T09:17:00;38.38;;;22.38;;
10503;SDS011;5299;48.704;9.138;2022-12-18T09:21:07;41.65;;;22.55;;
10503;SDS011;5299;48.704;9.138;2022-12-18T09:25:12;31.63;;;20.30;;
10503;SDS011;5299;48.704;9.138;2022-12-18T09:29:14;37.72;;;21.88;;
10503;SDS011;5299;48.704;9.138;2022-12-18T09:33:19;43.75;;;22.08;;
10503;SDS011;5299;48.704;9.138;2022-12-18T09:37:21;45.53;;;22.38;;
10503;SDS011;5299;48.704;9.138;2022-12-18T09:45:43;39.03;;;24.85;;
10503;SDS011;5299;48.704;9.138;2022-12-18T09:49:48;41.78;;;22.38;;
10503;SDS011;5299;48.704;9.138;2022-12-18T09:53:58;45.00;;;25.50;;
10503;SDS011;5299;48.704;9.138;2022-12-18T09:58:07;39.78;;;23.85;;
10503;SDS011;5299;48.704;9.138;2022-12-18T10:02:17;44.05;;;24.95;;
10503;SDS011;5299;48.704;9.138;2022-12-18T10:15:00;45.90;;;25.67;;
10503;SDS011;5299;48.704;9.138;2022-12-18T10:23:26;35.67;;;21.65;;
10503;SDS011;5299;48.704;9.138;2022-12-18T10:27:51;38.33;;;19.38;;
10503;SDS011;5299;48.704;9.138;2022-12-18T10:31:54;32.45;;;18.75;;
10503;SDS011;5299;48.704;9.138;2022-12-18T10:35:56;38.00;;;21.38;;
10503;SDS011;5299;48.704;9.138;2022-12-18T10:40:08;37.92;;;22.27;;
10503;SDS011;5299;48.704;9.138;2022-12-18T10:44:19;42.50;;;22.60;;
10503;SDS011;5299;48.704;9.138;2022-12-18T10:48:22;39.95;;;20.38;;
10503;SDS011;5299;48.704;9.138;2022-12-18T10:52:25;36.33;;;21.40;;
10503;SDS011;5299;48.704;9.138;2022-12-18T10:56:27;30.77;;;17.45;;
10503;SDS011;5299;48.704;9.138;2022-12-18T11:00:30;39.67;;;21.58;;
10503;SDS011;5299;48.704;9.138;2022-12-18T11:04:32;39.70;;;20.83;;
10503;SDS011;5299;48.704;9.138;2022-12-18T11:08:34;42.35;;;23.75;;
10503;SDS011;5299;48.704;9.138;2022-12-18T11:12:35;39.72;;;22.77;;
10503;SDS011;5299;48.704;9.138;2022-12-18T11:16:42;36.47;;;21.02;;
10503;SDS011;5299;48.704;9.138;2022-12-18T11:25:17;37.67;;;22.15;;
10503;SDS011;5299;48.704;9.138;2022-12-18T11:29:36;51.03;;;25.90;;
10503;SDS011;5299;48.704;9.138;2022-12-18T11:33:49;46.30;;;26.63;;
10503;SDS011;5299;48.704;9.138;2022-12-18T11:46:49;44.38;;;25.95;;
10503;SDS011;5299;48.704;9.138;2022-12-18T11:50:56;51.42;;;27.15;;
10503;SDS011;5299;48.704;9.138;2022-12-18T11:54:59;43.97;;;25.08;;
10503;SDS011;5299;48.704;9.138;2022-12-18T11:59:08;45.78;;;27.65;;
10503;SDS011;5299;48.704;9.138;2022-12-18T12:07:33;51.13;;;31.15;;
10503;SDS011;5299;48.704;9.138;2022-12-18T12:11:43;54.30;;;30.38;;
10503;SDS011;5299;48.704;9.138;2022-12-18T12:16:03;50.83;;;31.70;;
10503;SDS011;5299;48.704;9.138;2022-12-18T12:41:57;48.17;;;29.45;;
10503;SDS011;5299;48.704;9.138;2022-12-18T12:46:18;47.28;;;29.63;;
10503;SDS011;5299;48.704;9.138;2022-12-18T12:50:22;49.55;;;29.60;;
10503;SDS011;5299;48.704;9.138;2022-12-18T12:54:25;42.13;;;26.83;;
10503;SDS011;5299;48.704;9.138;2022-12-18T13:07:12;42.83;;;27.80;;
10503;SDS011;5299;48.704;9.138;2022-12-18T13:16:04;51.38;;;26.23;;
10503;SDS011;5299;48.704;9.138;2022-12-18T13:20:14;42.15;;;26.30;;
10503;SDS011;5299;48.704;9.138;2022-12-18T13:24:27;45.53;;;27.00;;
10503;SDS011;5299;48.704;9.138;2022-12-18T13:32:47;40.60;;;24.88;;
10503;SDS011;5299;48.704;9.138;2022-12-18T13:36:49;38.20;;;25.10;;
10503;SDS011;5299;48.704;9.138;2022-12-18T13:40:53;42.30;;;27.90;;
10503;SDS011;5299;48.704;9.138;2022-12-18T13:44:55;41.13;;;23.42;;
10503;SDS011;5299;48.704;9.138;2022-12-18T13:53:11;41.28;;;25.27;;
10503;SDS011;5299;48.704;9.138;2022-12-18T13:57:33;41.92;;;23.40;;
10503;SDS011;5299;48.704;9.138;2022-12-18T14:01:36;40.05;;;23.95;;
10503;SDS011;5299;48.704;9.138;2022-12-18T14:05:38;42.72;;;26.27;;
10503;SDS011;5299;48.704;9.138;2022-12-18T14:09:44;42.83;;;26.70;;
10503;SDS011;5299;48.704;9.138;2022-12-18T14:13:47;45.03;;;24.63;;
10503;SDS011;5299;48.704;9.138;2022-12-18T14:17:55;40.90;;;24.10;;
10503;SDS011;5299;48.704;9.138;2022-12-18T14:21:59;34.70;;;23.50;;
10503;SDS011;5299;48.704;9.138;2022-12-18T14:26:01;45.67;;;24.45;;
10503;SDS011;5299;48.704;9.138;2022-12-18T14:34:27;41.70;;;24.02;;
10503;SDS011;5299;48.704;9.138;2022-12-18T14:38:34;41.15;;;23.95;;
10503;SDS011;5299;48.704;9.138;2022-12-18T14:42:39;49.35;;;24.88;;
10503;SDS011;5299;48.704;9.138;2022-12-18T14:46:46;40.20;;;23.20;;
10503;SDS011;5299;48.704;9.138;2022-12-18T14:50:59;37.42;;;21.30;;
10503;SDS011;5299;48.704;9.138;2022-12-18T14:55:02;42.33;;;23.63;;
10503;SDS011;5299;48.704;9.138;2022-12-18T14:59:05;36.65;;;21.73;;
10503;SDS011;5299;48.704;9.138;2022-12-18T15:03:24;36.60;;;23.02;;
10503;SDS011;5299;48.704;9.138;2022-12-18T15:07:26;36.70;;;23.00;;
10503;SDS011;5299;48.704;9.138;2022-12-18T15:15:44;38.47;;;22.90;;
10503;SDS011;5299;48.704;9.138;2022-12-18T15:19:46;44.65;;;26.33;;
10503;SDS011;5299;48.704;9.138;2022-12-18T15:23:50;39.72;;;25.13;;
10503;SDS011;5299;48.704;9.138;2022-12-18T15:27:52;42.90;;;25.30;;
10503;SDS011;5299;48.704;9.138;2022-12-18T15:32:04;44.67;;;26.17;;
10503;SDS011;5299;48.704;9.138;2022-12-18T15:36:10;41.55;;;24.30;;
10503;SDS011;5299;48.704;9.138;2022-12-18T15:40:17;41.33;;;25.38;;
10503;SDS011;5299;48.704;9.138;2022-12-18T15:44:23;49.80;;;28.98;;
10503;SDS011;5299;48.704;9.138;2022-12-18T15:48:25;50.38;;;28.45;;
10503;SDS011;5299;48.704;9.138;2022-12-18T15:52:27;45.53;;;28.05;;
10503;SDS011;5299;48.704;9.138;2022-12-18T15:56:28;48.08;;;28.25;;
10503;SDS011;5299;48.704;9.138;2022-12-18T16:00:48;50.47;;;28.75;;
10503;SDS011;5299;48.704;9.138;2022-12-18T16:04:50;44.80;;;26.92;;
10503;SDS011;5299;48.704;9.138;2022-12-18T16:08:53;50.92;;;28.75;;
10503;SDS011;5299;48.704;9.138;2022-12-18T16:12:54;46.05;;;29.10;;
10503;SDS011;5299;48.704;9.138;2022-12-18T16:16:59;58.65;;;33.47;;
10503;SDS011;5299;48.704;9.138;2022-12-18T16:21:02;47.95;;;32.40;;
10503;SDS011;5299;48.704;9.138;2022-12-18T16:25:04;51.30;;;31.25;;
10503;SDS011;5299;48.704;9.138;2022-12-18T16:29:06;52.30;;;28.92;;
10503;SDS011;5299;48.704;9.138;2022-12-18T16:33:09;50.63;;;29.23;;
10503;SDS011;5299;48.704;9.138;2022-12-18T16:37:12;53.75;;;30.85;;
10503;SDS011;5299;48.704;9.138;2022-12-18T16:41:18;56.95;;;32.53;;
10503;SDS011;5299;48.704;9.138;2022-12-18T16:45:32;60.28;;;32.38;;
10503;SDS011;5299;48.704;9.138;2022-12-18T16:49:34;48.92;;;30.52;;
10503;SDS011;5299;48.704;9.138;2022-12-18T16:53:36;60.50;;;35.28;;
10503;SDS011;5299;48.704;9.138;2022-12-18T16:57:38;57.22;;;31.85;;
10503;SDS011;5299;48.704;9.138;2022-12-18T17:01:39;44.92;;;28.50;;
10503;SDS011;5299;48.704;9.138;2022-12-18T17:05:42;44.30;;;26.85;;
10503;SDS011;5299;48.704;9.138;2022-12-18T17:09:46;48.55;;;29.08;;
10503;SDS011;5299;48.704;9.138;2022-12-18T17:13:47;43.53;;;27.05;;
10503;SDS011;5299;48.704;9.138;2022-12-18T17:17:49;46.08;;;26.15;;
10503;SDS011;5299;48.704;9.138;2022-12-18T17:21:51;39.83;;;24.70;;
10503;SDS011;5299;48.704;9.138;2022-12-18T17:25:53;51.30;;;29.50;;
10503;SDS011;5299;48.704;9.138;2022-12-18T17:29:56;47.17;;;25.50;;
10503;SDS011;5299;48.704;9.138;2022-12-18T17:33:58;47.78;;;29.48;;
10503;SDS011;5299;48.704;9.138;2022-12-18T17:38:01;46.38;;;26.08;;
10503;SDS011;5299;48.704;9.138;2022-12-18T17:42:03;42.22;;;24.50;;
10503;SDS011;5299;48.704;9.138;2022-12-18T17:46:05;50.47;;;25.73;;
10503;SDS011;5299;48.704;9.138;2022-12-18T17:50:08;46.70;;;28.20;;
10503;SDS011;5299;48.704;9.138;2022-12-18T17:54:09;44.13;;;25.45;;
10503;SDS011;5299;48.704;9.138;2022-12-18T17:58:12;49.95;;;28.13;;
10503;SDS011;5299;48.704;9.138;2022-12-18T18:02:14;50.80;;;27.08;;
10503;SDS011;5299;48.704;9.138;2022-12-18T18:06:15;43.80;;;27.63;;
10503;SDS011;5299;48.704;9.138;2022-12-18T18:10:17;43.08;;;25.30;;
10503;SDS011;5299;48.704;9.138;2022-12-18T18:14:19;42.65;;;26.20;;
10503;SDS011;5299;48.704;9.138;2022-12-18T18:18:21;40.75;;;24.25;;
10503;SDS011;5299;48.704;9.138;2022-12-18T18:22:24;36.15;;;23.88;;
10503;SDS011;5299;48.704;9.138;2022-12-18T18:26:26;47.13;;;25.42;;
10503;SDS011;5299;48.704;9.138;2022-12-18T18:30:30;38.88;;;25.08;;
10503;SDS011;5299;48.704;9.138;2022-12-18T18:34:31;41.10;;;22.85;;
10503;SDS011;5299;48.704;9.138;2022-12-18T18:38:33;40.08;;;23.92;;
10503;SDS011;5299;48.704;9.138;2022-12-18T18:42:34;40.85;;;24.10;;
10503;SDS011;5299;48.704;9.138;2022-12-18T18:46:35;48.28;;;27.42;;
10503;SDS011;5299;48.704;9.138;2022-12-18T18:50:37;46.92;;;27.30;;
10503;SDS011;5299;48.704;9.138;2022-12-18T18:54:38;44.75;;;26.65;;
10503;SDS011;5299;48.704;9.138;2022-12-18T18:59:00;48.67;;;26.85;;
10503;SDS011;5299;48.704;9.138;2022-12-18T19:03:01;43.42;;;25.08;;
10503;SDS011;5299;48.704;9.138;2022-12-18T19:07:03;49.88;;;26.83;;
10503;SDS011;5299;48.704;9.138;2022-12-18T19:11:05;46.03;;;25.17;;
10503;SDS011;5299;48.704;9.138;2022-12-18T19:15:34;45.50;;;24.48;;
10503;SDS011;5299;48.704;9.138;2022-12-18T19:19:36;37.60;;;21.65;;
10503;SDS011;5299;48.704;9.138;2022-12-18T19:23:37;45.90;;;25.85;;
10503;SDS011;5299;48.704;9.138;2022-12-18T19:27:39;42.42;;;26.00;;
10503;SDS011;5299;48.704;9.138;2022-12-18T19:31:40;39.65;;;23.52;;
10503;SDS011;5299;48.704;9.138;2022-12-18T19:35:42;53.75;;;28.33;;
10503;SDS011;5299;48.704;9.138;2022-12-18T19:39:43;47.85;;;28.42;;
10503;SDS011;5299;48.704;9.138;2022-12-18T19:43:45;44.70;;;27.33;;
10503;SDS011;5299;48.704;9.138;2022-12-18T19:47:47;47.83;;;27.80;;
10503;SDS011;5299;48.704;9.138;2022-12-18T19:51:48;45.38;;;26.75;;
10503;SDS011;5299;48.704;9.138;2022-12-18T19:55:50;46.40;;;27.02;;
10503;SDS011;5299;48.704;9.138;2022-12-18T19:59:52;48.60;;;27.63;;
10503;SDS011;5299;48.704;9.138;2022-12-18T20:03:53;49.97;;;26.92;;
10503;SDS011;5299;48.704;9.138;2022-12-18T20:07:57;46.55;;;26.08;;
10503;SDS011;5299;48.704;9.138;2022-12-18T20:11:58;49.45;;;28.15;;
10503;SDS011;5299;48.704;9.138;2022-12-18T20:16:00;52.85;;;28.02;;
10503;SDS011;5299;48.704;9.138;2022-12-18T20:20:02;48.45;;;28.08;;
10503;SDS011;5299;48.704;9.138;2022-12-18T20:24:03;46.42;;;27.98;;
10503;SDS011;5299;48.704;9.138;2022-12-18T20:28:07;47.22;;;29.05;;
10503;SDS011;5299;48.704;9.138;2022-12-18T20:32:08;49.25;;;27.73;;
10503;SDS011;5299;48.704;9.138;2022-12-18T20:36:14;47.40;;;27.25;;
10503;SDS011;5299;48.704;9.138;2022-12-18T20:40:21;45.20;;;25.17;;
10503;SDS011;5299;48.704;9.138;2022-12-18T20:44:23;52.20;;;24.75;;
10503;SDS011;5299;48.704;9.138;2022-12-18T20:48:25;46.60;;;26.20;;
10503;SDS011;5299;48.704;9.138;2022-12-18T20:52:27;55.75;;;29.10;;
10503;SDS011;5299;48.704;9.138;2022-12-18T20:56:29;50.15;;;27.85;;
10503;SDS011;5299;48.704;9.138;2022-12-18T21:00:30;47.58;;;27.83;;
10503;SDS011;5299;48.704;9.138;2022-12-18T21:04:32;48.90;;;28.85;;
10503;SDS011;5299;48.704;9.138;2022-12-18T21:08:33;47.60;;;26.63;;
10503;SDS011;5299;48.704;9.138;2022-12-18T21:12:35;49.40;;;27.58;;
10503;SDS011;5299;48.704;9.138;2022-12-18T21:16:59;47.53;;;27.80;;
10503;SDS011;5299;48.704;9.138;2022-12-18T21:21:02;49.88;;;28.35;;
10503;SDS011;5299;48.704;9.138;2022-12-18T21:25:03;48.97;;;28.05;;
10503;SDS011;5299;48.704;9.138;2022-12-18T21:29:06;49.10;;;30.63;;
10503;SDS011;5299;48.704;9.138;2022-12-18T21:33:09;50.42;;;29.60;;
10503;SDS011;5299;48.704;9.138;2022-12-18T21:37:10;46.50;;;27.50;;
10503;SDS011;5299;48.704;9.138;2022-12-18T21:41:12;49.03;;;31.98;;
10503;SDS011;5299;48.704;9.138;2022-12-18T21:45:41;45.85;;;29.05;;
10503;SDS011;5299;48.704;9.138;2022-12-18T21:49:43;48.45;;;27.80;;
10503;SDS011;5299;48.704;9.138;2022-12-18T21:53:44;50.83;;;30.30;;
10503;SDS011;5299;48.704;9.138;2022-12-18T21:57:48;50.95;;;29.90;;
10503;SDS011;5299;48.704;9.138;2022-12-18T22:01:50;55.50;;;30.45;;
10503;SDS011;5299;48.704;9.138;2022-12-18T22:05:55;49.38;;;28.95;;
10503;SDS011;5299;48.704;9.138;2022-12-18T22:10:09;51.20;;;30.95;;
10503;SDS011;5299;48.704;9.138;2022-12-18T22:14:11;54.03;;;30.02;;
10503;SDS011;5299;48.704;9.138;2022-12-18T22:18:13;48.65;;;30.25;;
10503;SDS011;5299;48.704;9.138;2022-12-18T22:22:15;53.40;;;32.30;;
10503;SDS011;5299;48.704;9.138;2022-12-18T22:26:16;45.72;;;29.40;;
10503;SDS011;5299;48.704;9.138;2022-12-18T22:30:18;47.17;;;29.50;;
10503;SDS011;5299;48.704;9.138;2022-12-18T22:34:19;54.95;;;33.17;;
10503;SDS011;5299;48.704;9.138;2022-12-18T22:38:23;53.55;;;30.45;;
10503;SDS011;5299;48.704;9.138;2022-12-18T22:42:25;48.90;;;29.60;;
10503;SDS011;5299;48.704;9.138;2022-12-18T22:46:26;55.28;;;30.70;;
10503;SDS011;5299;48.704;9.138;2022-12-18T22:50:30;49.80;;;29.98;;
10503;SDS011;5299;48.704;9.138;2022-12-18T22:54:33;53.17;;;30.88;;
10503;SDS011;5299;48.704;9.138;2022-12-18T22:58:36;56.05;;;31.48;;
10503;SDS011;5299;48.704;9.138;2022-12-18T23:02:38;48.28;;;29.45;;
10503;SDS011;5299;48.704;9.138;2022-12-18T23:06:39;50.33;;;29.70;;
10503;SDS011;5299;48.704;9.138;2022-12-18T23:10:41;54.58;;;29.85;;
10503;SDS011;5299;48.704;9.138;2022-12-18T23:14:43;44.45;;;27.77;;
10503;SDS011;5299;48.704;9.138;2022-12-18T23:18:45;50.60;;;29.48;;
10503;SDS011;5299;48.704;9.138;2022-12-18T23:22:46;48.47;;;28.55;;
10503;SDS011;5299;48.704;9.138;2022-12-18T23:26:48;46.03;;;27.80;;
10503;SDS011;5299;48.704;9.138;2022-12-18T23:30:49;45.45;;;28.35;;
10503;SDS011;5299;48.704;9.138;2022-12-18T23:34:50;48.63;;;28.83;;
10503;SDS011;5299;48.704;9.138;2022-12-18T23:38:53;45.38;;;27.15;;
10503;SDS011;5299;48.704;9.138;2022-12-18T23:42:57;52.22;;;30.00;;
10503;SDS011;5299;48.704;9.138;2022-12-18T23:46:59;45.47;;;28.40;;
10503;SDS011;5299;48.704;9.138;2022-12-18T23:51:05;49.95;;;28.33;;
10503;SDS011;5299;48.704;9.138;2022-12-18T23:55:07;44.50;;;28.90;;
10503;SDS011;5299;48.704;9.138;2022-12-18T23:59:09;47.58;;;28.63;;
